Time;durP1;ratioP1;P1;durP2;ratioP2;P2;SDS_P1;SDS_P2;PMS_P1;PMS_P2;Temp;Humidity;BMP_temperature;BMP_pressure;BME280_temperature;BME280_humidity;BME280_pressure;Samples;Min_cycle;Max_cycle;Signal;HPM_P1;HPM_P2
2021/07/14 00:00:29;;;;;;;3.08;2.72;;;;;;;;;;4972734;28;20086;-71
2021/07/14 00:02:56;;;;;;;5.18;2.85;;;;;;;;;;4975239;28;20125;-71
2021/07/14 00:05:23;;;;;;;3.42;2.70;;;;;;;;;;4983318;28;20050;-72
2021/07/14 00:07:51;;;;;;;5.07;2.60;;;;;;;;;;4986955;28;20054;-71
2021/07/14 00:10:35;;;;;;;4.28;2.65;;;;;;;;;;4972620;28;20051;-71
2021/07/14 00:23:59;;;;;;;3.55;2.53;;;;;;;;;;4995278;28;20054;-71
2021/07/14 00:26:26;;;;;;;5.13;2.63;;;;;;;;;;4986410;28;20089;-71
2021/07/14 00:28:52;;;;;;;6.47;2.33;;;;;;;;;;4975449;28;20573;-71
2021/07/14 00:31:19;;;;;;;4.43;2.72;;;;;;;;;;4987473;28;20525;-71
2021/07/14 00:33:47;;;;;;;5.03;3.20;;;;;;;;;;4978072;28;20434;-72
2021/07/14 00:36:14;;;;;;;8.45;2.78;;;;;;;;;;4980593;28;20081;-72
2021/07/14 00:38:41;;;;;;;7.25;3.00;;;;;;;;;;4983733;28;20094;-71
2021/07/14 00:41:08;;;;;;;4.03;2.78;;;;;;;;;;4975839;28;20086;-72
2021/07/14 00:43:35;;;;;;;3.42;2.70;;;;;;;;;;4990471;28;20185;-71
2021/07/14 00:46:16;;;;;;;7.38;2.60;;;;;;;;;;4978267;28;20085;-72
2021/07/14 00:48:43;;;;;;;4.57;2.85;;;;;;;;;;4991385;28;20042;-71
2021/07/14 00:51:10;;;;;;;5.10;2.97;;;;;;;;;;4974621;28;20082;-72
2021/07/14 00:53:36;;;;;;;4.28;2.67;;;;;;;;;;4974694;28;20086;-72
2021/07/14 00:56:04;;;;;;;3.00;2.70;;;;;;;;;;4975850;28;20051;-72
2021/07/14 00:58:32;;;;;;;3.40;2.63;;;;;;;;;;4974612;28;20051;-71
2021/07/14 01:00:59;;;;;;;5.70;2.53;;;;;;;;;;4977084;28;20050;-72
2021/07/14 01:03:26;;;;;;;6.28;2.38;;;;;;;;;;4974553;28;20085;-72
2021/07/14 01:05:53;;;;;;;4.13;2.30;;;;;;;;;;4958782;28;20082;-71
2021/07/14 01:08:27;;;;;;;3.25;2.60;;;;;;;;;;4973719;28;20513;-72
2021/07/14 01:11:03;;;;;;;3.88;2.53;;;;;;;;;;4993434;28;20081;-71
2021/07/14 01:13:44;;;;;;;3.25;2.95;;;;;;;;;;4970995;28;20118;-72
2021/07/14 01:16:16;;;;;;;5.35;2.50;;;;;;;;;;4975315;28;20134;-72
2021/07/14 01:18:52;;;;;;;6.28;2.38;;;;;;;;;;4975391;28;20097;-72
2021/07/14 01:21:26;;;;;;;3.40;2.50;;;;;;;;;;4973925;28;20138;-72
2021/07/14 01:24:29;;;;;;;8.27;3.00;;;;;;;;;;4972531;28;20050;-72
2021/07/14 01:27:13;;;;;;;7.60;3.10;;;;;;;;;;4994837;28;20078;-71
2021/07/14 01:29:54;;;;;;;3.83;2.58;;;;;;;;;;4987629;28;20046;-72
2021/07/14 01:32:29;;;;;;;3.38;2.45;;;;;;;;;;4978521;28;20096;-72
2021/07/14 01:34:58;;;;;;;6.60;3.10;;;;;;;;;;4993650;28;20101;-71
2021/07/14 01:37:25;;;;;;;3.75;2.88;;;;;;;;;;4975825;28;20089;-71
2021/07/14 01:39:52;;;;;;;3.75;2.63;;;;;;;;;;4968252;28;20070;-71
2021/07/14 01:42:22;;;;;;;8.75;2.85;;;;;;;;;;4994142;28;20054;-71
2021/07/14 01:44:49;;;;;;;4.40;3.30;;;;;;;;;;4993112;28;20081;-71
2021/07/14 01:47:16;;;;;;;8.38;3.47;;;;;;;;;;4994360;28;20074;-71
2021/07/14 01:49:42;;;;;;;7.70;3.33;;;;;;;;;;4971743;28;20078;-72
2021/07/14 01:52:11;;;;;;;6.80;3.35;;;;;;;;;;4973723;28;20051;-71
2021/07/14 01:54:39;;;;;;;3.75;3.15;;;;;;;;;;4957865;28;20082;-71
2021/07/14 01:57:05;;;;;;;5.60;3.42;;;;;;;;;;4957598;28;20489;-71
2021/07/14 01:59:32;;;;;;;7.88;3.17;;;;;;;;;;4973800;28;20078;-71
2021/07/14 02:02:01;;;;;;;9.55;3.53;;;;;;;;;;4973371;28;20085;-72
2021/07/14 02:04:31;;;;;;;7.28;3.08;;;;;;;;;;4984814;28;20082;-72
2021/07/14 02:07:19;;;;;;;8.18;3.13;;;;;;;;;;4993025;28;20073;-72
2021/07/14 02:09:47;;;;;;;6.47;3.05;;;;;;;;;;4986162;28;20524;-72
2021/07/14 02:12:15;;;;;;;5.45;2.85;;;;;;;;;;4992519;28;20046;-72
2021/07/14 02:14:54;;;;;;;2.92;2.42;;;;;;;;;;4993729;28;20552;-72
2021/07/14 02:17:22;;;;;;;6.88;3.40;;;;;;;;;;4987039;28;20078;-71
2021/07/14 02:19:54;;;;;;;5.75;2.60;;;;;;;;;;4960900;28;20070;-72
2021/07/14 02:22:20;;;;;;;5.65;2.60;;;;;;;;;;4972941;28;20042;-72
2021/07/14 02:24:47;;;;;;;4.45;3.03;;;;;;;;;;4974242;28;20090;-72
2021/07/14 02:27:15;;;;;;;6.53;2.50;;;;;;;;;;4984288;28;20050;-72
2021/07/14 02:29:42;;;;;;;6.15;2.40;;;;;;;;;;4989400;28;20093;-72
2021/07/14 02:32:12;;;;;;;6.75;2.70;;;;;;;;;;4973823;28;20101;-72
2021/07/14 02:34:39;;;;;;;5.53;2.47;;;;;;;;;;4972964;28;20093;-72
2021/07/14 02:37:06;;;;;;;5.75;2.65;;;;;;;;;;4972917;28;20071;-71
2021/07/14 02:39:33;;;;;;;4.13;2.78;;;;;;;;;;4956930;28;20050;-72
2021/07/14 02:42:04;;;;;;;3.58;2.75;;;;;;;;;;4972477;28;20077;-71
2021/07/14 02:44:35;;;;;;;2.90;2.60;;;;;;;;;;4983532;28;20077;-72
2021/07/14 02:47:01;;;;;;;4.25;2.53;;;;;;;;;;4992383;28;20093;-71
2021/07/14 02:49:28;;;;;;;4.05;2.80;;;;;;;;;;4967531;28;20085;-71
2021/07/14 02:51:55;;;;;;;4.80;2.92;;;;;;;;;;4991936;28;20077;-71
2021/07/14 02:54:25;;;;;;;7.47;3.00;;;;;;;;;;4993100;28;20089;-71
2021/07/14 02:57:00;;;;;;;6.53;2.83;;;;;;;;;;4976242;28;20505;-72
2021/07/14 02:59:29;;;;;;;4.90;2.92;;;;;;;;;;4974383;28;20186;-72
2021/07/14 03:01:56;;;;;;;4.63;3.05;;;;;;;;;;4991769;28;20160;-72
2021/07/14 03:04:27;;;;;;;3.92;2.90;;;;;;;;;;4968833;28;20514;-71
2021/07/14 03:06:54;;;;;;;5.30;2.50;;;;;;;;;;4975991;28;20137;-71
2021/07/14 03:09:23;;;;;;;3.60;2.72;;;;;;;;;;4975364;28;20093;-72
2021/07/14 03:11:50;;;;;;;5.32;2.70;;;;;;;;;;4940818;28;20077;-71
2021/07/14 03:14:17;;;;;;;4.97;2.70;;;;;;;;;;4982957;28;20417;-72
2021/07/14 03:16:43;;;;;;;3.80;2.65;;;;;;;;;;4958951;28;20148;-72
2021/07/14 03:19:10;;;;;;;4.00;2.92;;;;;;;;;;4972404;28;20057;-72
2021/07/14 03:21:37;;;;;;;3.88;2.70;;;;;;;;;;4971483;28;20078;-72
2021/07/14 03:24:05;;;;;;;6.25;2.95;;;;;;;;;;4965683;28;20123;-72
2021/07/14 03:26:32;;;;;;;5.03;2.83;;;;;;;;;;4989743;28;20116;-72
2021/07/14 03:28:59;;;;;;;4.70;3.35;;;;;;;;;;4983124;28;20054;-71
2021/07/14 03:31:26;;;;;;;6.35;3.15;;;;;;;;;;4975146;28;20148;-71
2021/07/14 03:33:52;;;;;;;4.38;2.90;;;;;;;;;;4975336;28;20055;-71
2021/07/14 03:36:19;;;;;;;3.47;2.97;;;;;;;;;;4981734;28;20493;-71
2021/07/14 03:38:45;;;;;;;3.97;3.20;;;;;;;;;;4956282;28;20086;-72
2021/07/14 03:41:12;;;;;;;5.35;4.00;;;;;;;;;;4978305;28;20085;-72
2021/07/14 03:43:39;;;;;;;4.18;2.88;;;;;;;;;;4972912;28;20074;-73
2021/07/14 03:46:08;;;;;;;4.70;3.80;;;;;;;;;;4992554;28;20058;-73
2021/07/14 03:48:35;;;;;;;4.88;2.97;;;;;;;;;;4991532;28;20130;-73
2021/07/14 03:51:02;;;;;;;4.20;3.05;;;;;;;;;;4982824;28;20410;-73
2021/07/14 03:53:29;;;;;;;7.93;3.72;;;;;;;;;;4973068;28;20098;-73
2021/07/14 03:55:55;;;;;;;3.13;2.75;;;;;;;;;;4980225;28;20077;-72
2021/07/14 03:58:24;;;;;;;3.97;3.47;;;;;;;;;;4993965;28;20497;-73
2021/07/14 04:00:51;;;;;;;3.63;3.33;;;;;;;;;;4997222;28;20081;-72
2021/07/14 04:03:21;;;;;;;4.35;3.33;;;;;;;;;;4984007;28;20570;-73
2021/07/14 04:05:50;;;;;;;4.57;3.10;;;;;;;;;;4977731;28;20081;-72
2021/07/14 04:08:19;;;;;;;3.67;3.20;;;;;;;;;;4959994;28;20113;-71
2021/07/14 04:10:46;;;;;;;5.45;2.83;;;;;;;;;;4959390;28;20081;-72
2021/07/14 04:13:12;;;;;;;5.53;2.90;;;;;;;;;;4977870;28;20086;-71
2021/07/14 04:15:39;;;;;;;4.18;3.30;;;;;;;;;;4980507;28;20653;-72
2021/07/14 04:18:08;;;;;;;5.22;3.00;;;;;;;;;;4975561;28;20137;-72
2021/07/14 04:20:34;;;;;;;4.95;2.83;;;;;;;;;;4976524;28;20098;-71
2021/07/14 04:23:01;;;;;;;7.30;3.00;;;;;;;;;;4994163;23;20077;-72
2021/07/14 04:25:28;;;;;;;6.63;3.10;;;;;;;;;;4976258;28;20509;-72
2021/07/14 04:27:55;;;;;;;4.82;2.80;;;;;;;;;;4976921;28;20074;-72
2021/07/14 04:30:21;;;;;;;4.32;3.08;;;;;;;;;;4976690;28;20086;-73
2021/07/14 04:32:48;;;;;;;6.00;2.80;;;;;;;;;;4976209;28;20142;-73
2021/07/14 04:35:14;;;;;;;6.07;2.60;;;;;;;;;;4976671;28;20085;-72
2021/07/14 04:37:47;;;;;;;6.68;3.03;;;;;;;;;;4976529;28;20086;-72
2021/07/14 04:40:13;;;;;;;7.10;3.28;;;;;;;;;;4976471;28;20086;-72
2021/07/14 04:42:40;;;;;;;21.08;6.97;;;;;;;;;;4976089;28;20078;-73
2021/07/14 04:45:07;;;;;;;4.15;3.05;;;;;;;;;;4976242;28;20139;-73
2021/07/14 04:47:33;;;;;;;6.20;2.67;;;;;;;;;;4976271;28;20398;-72
2021/07/14 04:50:00;;;;;;;4.30;2.95;;;;;;;;;;4976185;28;20450;-72
2021/07/14 04:52:27;;;;;;;5.28;2.92;;;;;;;;;;4975996;28;20051;-72
2021/07/14 04:54:53;;;;;;;6.85;3.00;;;;;;;;;;4975160;28;20071;-72
2021/07/14 04:57:20;;;;;;;4.40;2.97;;;;;;;;;;4976300;28;20059;-72
2021/07/14 04:59:46;;;;;;;4.07;2.70;;;;;;;;;;4975960;28;20333;-72
2021/07/14 05:02:13;;;;;;;5.93;3.20;;;;;;;;;;4975740;28;20054;-72
2021/07/14 05:04:40;;;;;;;6.15;2.40;;;;;;;;;;4975887;28;20082;-72
2021/07/14 05:07:06;;;;;;;3.35;2.47;;;;;;;;;;4975809;28;20141;-72
2021/07/14 05:09:33;;;;;;;5.03;2.78;;;;;;;;;;4975100;28;20055;-72
2021/07/14 05:12:00;;;;;;;4.57;2.40;;;;;;;;;;4975529;28;20489;-73
2021/07/14 05:14:26;;;;;;;3.33;2.30;;;;;;;;;;4975734;28;20066;-73
2021/07/14 05:16:53;;;;;;;4.95;2.58;;;;;;;;;;4975779;28;20106;-73
2021/07/14 05:19:20;;;;;;;3.45;3.00;;;;;;;;;;4975553;28;20051;-73
2021/07/14 05:21:46;;;;;;;4.60;2.90;;;;;;;;;;4975347;28;20560;-73
2021/07/14 05:24:13;;;;;;;4.40;2.47;;;;;;;;;;4976287;28;20077;-73
2021/07/14 05:26:40;;;;;;;5.32;2.50;;;;;;;;;;4975676;28;20078;-72
2021/07/14 05:29:06;;;;;;;3.90;2.50;;;;;;;;;;4974367;28;20485;-73
2021/07/14 05:31:33;;;;;;;4.13;3.10;;;;;;;;;;4975146;28;20074;-72
2021/07/14 05:34:00;;;;;;;3.10;2.78;;;;;;;;;;4975319;28;20050;-72
2021/07/14 05:36:26;;;;;;;5.32;2.58;;;;;;;;;;4975264;28;20398;-73
2021/07/14 05:38:53;;;;;;;3.45;2.55;;;;;;;;;;4975555;28;20051;-73
2021/07/14 05:41:19;;;;;;;3.47;2.60;;;;;;;;;;4975025;28;20086;-73
2021/07/14 05:43:47;;;;;;;5.82;2.60;;;;;;;;;;4975285;28;20075;-72
2021/07/14 05:46:14;;;;;;;3.22;2.60;;;;;;;;;;4974855;28;20089;-71
2021/07/14 05:48:41;;;;;;;4.50;2.78;;;;;;;;;;4974830;28;20058;-71
2021/07/14 05:51:07;;;;;;;6.93;2.72;;;;;;;;;;4974887;28;20462;-72
2021/07/14 05:53:34;;;;;;;2.60;2.17;;;;;;;;;;4974530;28;20332;-71
2021/07/14 05:56:00;;;;;;;5.93;2.58;;;;;;;;;;4974466;28;20182;-72
2021/07/14 05:58:28;;;;;;;4.18;2.90;;;;;;;;;;4975271;28;20105;-73
2021/07/14 06:00:55;;;;;;;3.88;2.53;;;;;;;;;;4971836;28;20546;-71
2021/07/14 06:03:21;;;;;;;5.32;2.78;;;;;;;;;;4972147;28;20051;-72
2021/07/14 06:05:48;;;;;;;10.52;2.60;;;;;;;;;;4973043;28;20081;-72
2021/07/14 06:08:15;;;;;;;16.33;3.30;;;;;;;;;;4971608;28;20101;-71
2021/07/14 06:10:41;;;;;;;5.65;3.03;;;;;;;;;;4972464;28;20047;-71
2021/07/14 06:13:09;;;;;;;5.28;3.00;;;;;;;;;;4970964;28;20046;-71
2021/07/14 06:15:36;;;;;;;3.67;2.53;;;;;;;;;;4972507;28;20054;-71
2021/07/14 06:18:02;;;;;;;8.95;2.85;;;;;;;;;;4972670;28;20426;-72
2021/07/14 06:20:29;;;;;;;5.32;2.78;;;;;;;;;;4971614;28;20054;-71
2021/07/14 06:22:56;;;;;;;8.80;2.83;;;;;;;;;;4972262;28;20086;-71
2021/07/14 06:25:22;;;;;;;4.13;2.70;;;;;;;;;;4971951;28;20103;-71
2021/07/14 06:27:49;;;;;;;3.25;2.78;;;;;;;;;;4972229;28;20085;-71
2021/07/14 06:30:16;;;;;;;4.07;2.50;;;;;;;;;;4972542;28;20149;-71
2021/07/14 06:32:43;;;;;;;4.63;2.85;;;;;;;;;;4971966;28;20416;-71
2021/07/14 06:35:11;;;;;;;5.15;3.40;;;;;;;;;;4972063;28;20057;-71
2021/07/14 06:37:38;;;;;;;4.38;2.95;;;;;;;;;;4972249;28;20478;-71
2021/07/14 06:40:07;;;;;;;6.30;2.97;;;;;;;;;;4971888;28;20047;-70
2021/07/14 06:42:33;;;;;;;4.90;2.65;;;;;;;;;;4971749;28;20090;-70
2021/07/14 06:45:00;;;;;;;4.10;2.55;;;;;;;;;;4972194;28;20066;-71
2021/07/14 06:47:27;;;;;;;3.20;2.33;;;;;;;;;;4972194;28;20047;-71
2021/07/14 06:49:53;;;;;;;5.47;2.40;;;;;;;;;;4972321;28;20055;-70
2021/07/14 06:52:20;;;;;;;7.88;2.80;;;;;;;;;;4971498;28;20101;-71
2021/07/14 06:54:47;;;;;;;2.92;2.70;;;;;;;;;;4971525;28;20100;-71
2021/07/14 06:57:13;;;;;;;6.05;2.80;;;;;;;;;;4971867;28;20074;-71
2021/07/14 06:59:40;;;;;;;5.93;2.72;;;;;;;;;;4971927;28;20501;-72
2021/07/14 07:02:06;;;;;;;5.38;2.67;;;;;;;;;;4971862;28;20059;-72
2021/07/14 07:04:33;;;;;;;5.78;2.30;;;;;;;;;;4971547;28;20051;-72
2021/07/14 07:07:01;;;;;;;3.67;2.55;;;;;;;;;;4971828;28;20106;-72
2021/07/14 07:09:27;;;;;;;5.38;2.50;;;;;;;;;;4971545;28;20078;-72
2021/07/14 07:11:54;;;;;;;3.42;2.50;;;;;;;;;;4971441;28;20058;-70
2021/07/14 07:14:21;;;;;;;6.43;2.50;;;;;;;;;;4971458;28;20141;-70
2021/07/14 07:16:47;;;;;;;4.38;2.80;;;;;;;;;;4954635;28;20054;-67
2021/07/14 07:19:15;;;;;;;8.98;3.42;;;;;;;;;;4958199;28;20645;-68
2021/07/14 07:21:42;;;;;;;3.15;2.85;;;;;;;;;;4965341;28;20082;-68
2021/07/14 07:24:09;;;;;;;5.78;2.80;;;;;;;;;;4961644;28;20043;-68
2021/07/14 07:26:36;;;;;;;3.70;2.50;;;;;;;;;;4967556;28;20137;-68
2021/07/14 07:29:10;;;;;;;4.07;2.60;;;;;;;;;;4965632;28;20510;-68
2021/07/14 07:31:38;;;;;;;3.05;2.75;;;;;;;;;;4959839;28;20189;-69
2021/07/14 07:34:05;;;;;;;6.10;2.58;;;;;;;;;;4965797;28;20051;-69
2021/07/14 07:36:31;;;;;;;3.28;2.70;;;;;;;;;;4961426;28;20055;-69
2021/07/14 07:38:58;;;;;;;3.20;2.42;;;;;;;;;;4964587;28;20066;-68
2021/07/14 07:41:26;;;;;;;3.97;2.45;;;;;;;;;;4966604;28;20050;-68
2021/07/14 07:43:53;;;;;;;4.78;2.40;;;;;;;;;;4959371;28;20097;-69
2021/07/14 07:46:20;;;;;;;6.13;2.70;;;;;;;;;;4964962;28;20659;-68
2021/07/14 07:48:47;;;;;;;4.63;2.60;;;;;;;;;;4971453;28;20138;-69
2021/07/14 07:51:14;;;;;;;3.45;2.55;;;;;;;;;;4966812;28;20438;-68
2021/07/14 07:53:40;;;;;;;3.13;2.50;;;;;;;;;;4962823;28;20466;-69
2021/07/14 07:56:07;;;;;;;5.75;3.05;;;;;;;;;;4968841;28;20469;-68
2021/07/14 07:58:34;;;;;;;3.38;2.80;;;;;;;;;;4968548;28;20074;-68
2021/07/14 08:01:01;;;;;;;3.20;2.38;;;;;;;;;;4958127;28;20055;-68
2021/07/14 08:03:28;;;;;;;3.70;3.00;;;;;;;;;;4956870;28;20134;-68
2021/07/14 08:05:54;;;;;;;5.25;2.90;;;;;;;;;;4957185;28;20078;-68
2021/07/14 08:08:21;;;;;;;5.32;2.85;;;;;;;;;;4967636;28;20102;-68
2021/07/14 08:10:48;;;;;;;8.13;2.75;;;;;;;;;;4962200;28;20472;-68
2021/07/14 08:13:15;;;;;;;5.80;3.08;;;;;;;;;;4957221;28;20522;-68
2021/07/14 08:15:43;;;;;;;5.88;2.50;;;;;;;;;;4963860;28;20068;-68
2021/07/14 08:18:10;;;;;;;4.38;2.65;;;;;;;;;;4956383;28;20053;-68
2021/07/14 08:20:36;;;;;;;4.13;3.15;;;;;;;;;;4964928;28;20090;-73
2021/07/14 08:23:04;;;;;;;7.60;3.35;;;;;;;;;;4964333;28;20457;-70
2021/07/14 08:25:30;;;;;;;3.92;3.05;;;;;;;;;;4961036;28;20078;-72
2021/07/14 08:27:57;;;;;;;5.65;3.05;;;;;;;;;;4960789;28;20094;-74
2021/07/14 08:30:24;;;;;;;5.32;3.22;;;;;;;;;;4961301;28;20470;-76
2021/07/14 08:32:51;;;;;;;4.47;3.60;;;;;;;;;;4962339;28;20043;-71
2021/07/14 08:35:18;;;;;;;5.00;3.00;;;;;;;;;;4962093;28;20083;-72
2021/07/14 08:37:46;;;;;;;7.05;3.10;;;;;;;;;;4958894;28;20110;-69
2021/07/14 08:40:13;;;;;;;8.82;3.72;;;;;;;;;;4960526;28;20051;-71
2021/07/14 08:42:42;;;;;;;3.35;2.80;;;;;;;;;;4963269;28;20082;-71
2021/07/14 08:45:11;;;;;;;5.97;3.20;;;;;;;;;;4966063;28;20051;-68
2021/07/14 08:47:39;;;;;;;4.90;3.15;;;;;;;;;;4962772;28;20425;-69
2021/07/14 08:50:07;;;;;;;4.15;2.97;;;;;;;;;;4969771;28;20055;-69
2021/07/14 08:52:34;;;;;;;4.07;2.85;;;;;;;;;;4964886;28;20414;-73
2021/07/14 08:55:05;;;;;;;5.43;3.40;;;;;;;;;;4963531;28;20632;-73
2021/07/14 08:57:52;;;;;;;7.15;3.00;;;;;;;;;;4926418;28;20090;-69
2021/07/14 09:00:22;;;;;;;9.95;4.10;;;;;;;;;;4967338;28;20109;-71
2021/07/14 09:02:49;;;;;;;6.88;3.83;;;;;;;;;;4962002;28;20051;-70
2021/07/14 09:05:15;;;;;;;4.10;3.25;;;;;;;;;;4961791;28;20043;-70
2021/07/14 09:07:42;;;;;;;4.20;3.05;;;;;;;;;;4963963;28;20110;-73
2021/07/14 09:10:12;;;;;;;6.25;4.35;;;;;;;;;;4961714;28;20057;-72
2021/07/14 09:12:45;;;;;;;5.05;3.53;;;;;;;;;;4967882;28;20128;-68
2021/07/14 09:15:14;;;;;;;4.80;3.08;;;;;;;;;;4965984;28;20054;-68
2021/07/14 09:17:46;;;;;;;5.53;3.40;;;;;;;;;;4969908;28;20067;-68
2021/07/14 09:20:25;;;;;;;5.45;3.75;;;;;;;;;;4969739;28;20058;-68
2021/07/14 09:23:17;;;;;;;9.57;3.03;;;;;;;;;;4959756;28;20051;-71
2021/07/14 09:25:55;;;;;;;4.97;3.10;;;;;;;;;;4964943;28;20043;-70
2021/07/14 09:28:32;;;;;;;7.90;3.30;;;;;;;;;;4966235;28;20062;-71
2021/07/14 09:31:04;;;;;;;3.25;2.90;;;;;;;;;;4953975;29;20089;-68
2021/07/14 09:33:32;;;;;;;3.67;3.20;;;;;;;;;;4961991;28;20058;-69
2021/07/14 09:35:59;;;;;;;5.90;3.08;;;;;;;;;;4963094;28;20142;-69
2021/07/14 09:38:29;;;;;;;3.97;3.00;;;;;;;;;;4962171;28;20054;-68
2021/07/14 09:40:59;;;;;;;3.42;2.92;;;;;;;;;;4961795;28;20117;-68
2021/07/14 09:43:31;;;;;;;4.60;3.28;;;;;;;;;;4965833;28;20049;-68
2021/07/14 09:45:59;;;;;;;;;;;;;;;;;;4967125;28;20046;-67
2021/07/14 09:48:43;;;;;;;3.33;2.90;;;;;;;;;;4962656;28;19946;-72
2021/07/14 09:51:13;;;;;;;8.57;2.97;;;;;;;;;;4962196;28;20081;-68
2021/07/14 09:53:46;;;;;;;6.90;2.50;;;;;;;;;;4960699;28;20494;-74
2021/07/14 09:56:25;;;;;;;3.63;2.72;;;;;;;;;;4962231;28;20050;-68
2021/07/14 09:59:07;;;;;;;4.97;2.88;;;;;;;;;;4962037;28;20055;-71
2021/07/14 10:01:50;;;;;;;3.03;2.73;;;;;;;;;;4960559;28;20110;-71
2021/07/14 10:04:24;;;;;;;5.35;2.75;;;;;;;;;;4963029;28;20477;-69
2021/07/14 10:07:24;;;;;;;4.53;2.80;;;;;;;;;;4964448;28;20506;-70
2021/07/14 10:09:54;;;;;;;3.70;2.90;;;;;;;;;;4965158;28;20050;-73
2021/07/14 10:12:40;;;;;;;6.10;2.90;;;;;;;;;;4962091;28;20055;-74
2021/07/14 10:15:14;;;;;;;4.60;2.92;;;;;;;;;;4960974;28;20077;-70
2021/07/14 10:17:44;;;;;;;2.97;2.33;;;;;;;;;;4963661;28;20055;-71
2021/07/14 10:20:35;;;;;;;4.75;2.65;;;;;;;;;;4960465;28;20138;-70
2021/07/14 10:23:15;;;;;;;5.20;2.47;;;;;;;;;;4972468;23;20263;-70
2021/07/14 10:25:44;;;;;;;4.15;2.90;;;;;;;;;;4949837;29;20484;-71
2021/07/14 10:28:13;;;;;;;5.00;2.50;;;;;;;;;;4952886;29;20146;-73
2021/07/14 10:30:41;;;;;;;4.15;2.90;;;;;;;;;;4952888;29;20079;-73
2021/07/14 10:33:10;;;;;;;6.28;3.50;;;;;;;;;;4953950;28;20561;-74
2021/07/14 10:35:42;;;;;;;3.45;2.33;;;;;;;;;;4936692;29;20087;-73
2021/07/14 10:38:27;;;;;;;4.75;2.70;;;;;;;;;;4950908;29;20051;-74
2021/07/14 10:41:00;;;;;;;3.65;3.08;;;;;;;;;;4951848;29;20051;-72
2021/07/14 10:43:33;;;;;;;4.45;2.25;;;;;;;;;;4952511;28;20102;-75
2021/07/14 10:46:20;;;;;;;4.65;2.33;;;;;;;;;;4952286;28;20491;-72
2021/07/14 10:48:47;;;;;;;4.75;2.75;;;;;;;;;;4953273;28;20087;-73
2021/07/14 10:51:14;;;;;;;2.75;2.03;;;;;;;;;;4953294;29;20055;-72
2021/07/14 10:53:41;;;;;;;4.90;2.25;;;;;;;;;;4951986;29;20055;-76
2021/07/14 10:56:09;;;;;;;3.70;2.13;;;;;;;;;;4936484;29;20541;-75
2021/07/14 10:58:42;;;;;;;4.32;2.30;;;;;;;;;;4937003;29;20133;-73
2021/07/14 11:01:09;;;;;;;6.05;2.13;;;;;;;;;;4925012;29;20094;-75
2021/07/14 11:06:10;;;;;;;3.50;2.45;;;;;;;;;;4951601;28;20055;-74
2021/07/14 11:08:47;;;;;;;5.50;2.10;;;;;;;;;;4952981;29;20062;-70
2021/07/14 11:11:24;;;;;;;4.10;1.80;;;;;;;;;;4951240;29;20051;-72
2021/07/14 11:14:06;;;;;;;3.50;1.67;;;;;;;;;;4954682;28;20103;-73
2021/07/14 11:16:36;;;;;;;3.42;1.95;;;;;;;;;;4922993;29;20270;-70
2021/07/14 11:19:07;;;;;;;2.17;1.90;;;;;;;;;;4922215;29;20091;-75
2021/07/14 11:21:47;;;;;;;2.38;2.05;;;;;;;;;;4935686;28;20058;-75
2021/07/14 11:24:36;;;;;;;3.40;1.80;;;;;;;;;;4925945;29;20051;-73
2021/07/14 11:27:18;;;;;;;3.50;1.77;;;;;;;;;;4923014;29;20048;-71
2021/07/14 11:29:46;;;;;;;2.72;1.70;;;;;;;;;;4924966;29;20055;-71
2021/07/14 11:32:35;;;;;;;1.85;1.73;;;;;;;;;;4933667;28;20051;-71
2021/07/14 11:35:17;;;;;;;1.90;1.50;;;;;;;;;;4921984;29;20146;-72
2021/07/14 11:37:51;;;;;;;2.28;1.70;;;;;;;;;;4922524;29;20495;-73
2021/07/14 11:40:20;;;;;;;2.22;1.52;;;;;;;;;;4939535;28;20056;-71
2021/07/14 11:43:11;;;;;;;2.78;1.33;;;;;;;;;;4921306;29;20044;-70
2021/07/14 11:45:49;;;;;;;2.40;1.80;;;;;;;;;;4922077;29;20043;-70
2021/07/14 11:48:26;;;;;;;1.58;1.27;;;;;;;;;;4937352;28;20062;-72
2021/07/14 11:51:04;;;;;;;2.88;1.27;;;;;;;;;;4937807;28;20507;-71
2021/07/14 11:53:39;;;;;;;2.55;1.40;;;;;;;;;;4923599;29;20131;-69
2021/07/14 11:56:22;;;;;;;5.22;1.40;;;;;;;;;;4929350;29;20059;-69
2021/07/14 11:58:59;;;;;;;1.38;0.90;;;;;;;;;;4924028;29;20102;-70
2021/07/14 12:01:26;;;;;;;2.72;1.10;;;;;;;;;;4928087;29;20440;-68
2021/07/14 12:04:00;;;;;;;7.65;1.30;;;;;;;;;;4928936;29;20056;-68
2021/07/14 12:06:34;;;;;;;1.13;1.02;;;;;;;;;;4920804;29;20074;-69
2021/07/14 12:09:14;;;;;;;1.65;0.90;;;;;;;;;;4923917;29;20468;-68
2021/07/14 12:12:02;;;;;;;1.40;1.02;;;;;;;;;;4935165;28;20059;-73
2021/07/14 12:14:39;;;;;;;1.00;0.70;;;;;;;;;;4921941;29;20480;-73
2021/07/14 12:17:09;;;;;;;1.33;0.80;;;;;;;;;;4954624;28;20131;-72
2021/07/14 12:19:39;;;;;;;3.75;0.85;;;;;;;;;;4938460;28;20510;-71
2021/07/14 12:22:12;;;;;;;0.90;0.90;;;;;;;;;;4958427;28;20055;-74
2021/07/14 12:24:42;;;;;;;1.00;0.80;;;;;;;;;;4941000;28;20064;-73
2021/07/14 12:27:09;;;;;;;1.55;0.85;;;;;;;;;;4929635;29;20065;-71
2021/07/14 12:29:37;;;;;;;1.52;0.70;;;;;;;;;;4925999;29;20066;-69
2021/07/14 12:32:06;;;;;;;1.83;0.80;;;;;;;;;;4926817;29;20055;-69
2021/07/14 12:34:34;;;;;;;2.38;1.98;;;;;;;;;;4925009;29;20052;-71
2021/07/14 12:37:03;;;;;;;1.38;1.00;;;;;;;;;;4956358;28;20422;-73
2021/07/14 12:39:37;;;;;;;2.42;1.45;;;;;;;;;;4923247;29;20082;-76
2021/07/14 12:42:07;;;;;;;0.60;0.60;;;;;;;;;;4925841;29;20559;-75
2021/07/14 12:44:35;;;;;;;4.60;1.55;;;;;;;;;;4944108;28;20075;-68
2021/07/14 12:47:22;;;;;;;2.33;0.68;;;;;;;;;;4954450;28;20052;-77
2021/07/14 12:49:53;;;;;;;1.45;0.88;;;;;;;;;;4940331;28;20047;-73
2021/07/14 12:52:21;;;;;;;0.85;0.65;;;;;;;;;;4927626;29;20489;-74
2021/07/14 12:55:01;;;;;;;0.85;0.60;;;;;;;;;;4955810;28;20569;-73
2021/07/14 12:57:30;;;;;;;1.50;0.80;;;;;;;;;;4923610;29;20087;-72
2021/07/14 13:00:09;;;;;;;0.70;0.70;;;;;;;;;;4926218;29;20058;-75
2021/07/14 13:02:41;;;;;;;1.15;0.80;;;;;;;;;;4954427;28;20115;-68
2021/07/14 13:05:14;;;;;;;2.08;0.68;;;;;;;;;;4953418;28;20441;-68
2021/07/14 13:07:44;;;;;;;1.08;0.80;;;;;;;;;;4924921;29;20048;-68
2021/07/14 13:10:11;;;;;;;2.08;0.75;;;;;;;;;;4938223;28;20052;-68
2021/07/14 13:12:39;;;;;;;0.50;0.50;;;;;;;;;;4925474;29;20059;-69
2021/07/14 13:15:06;;;;;;;0.60;0.60;;;;;;;;;;4938016;28;20131;-66
2021/07/14 13:17:36;;;;;;;1.17;0.75;;;;;;;;;;4955069;28;20470;-67
2021/07/14 13:20:12;;;;;;;0.70;0.70;;;;;;;;;;4940933;28;20044;-65
2021/07/14 13:22:40;;;;;;;0.80;0.80;;;;;;;;;;4922385;29;20076;-68
2021/07/14 13:25:13;;;;;;;0.65;0.63;;;;;;;;;;4925143;29;20074;-72
2021/07/14 13:27:46;;;;;;;0.63;0.63;;;;;;;;;;4923792;29;20111;-72
2021/07/14 13:30:32;;;;;;;1.33;0.90;;;;;;;;;;4936433;28;20052;-73
2021/07/14 13:33:16;;;;;;;0.95;0.60;;;;;;;;;;4926110;29;20068;-70
2021/07/14 13:35:48;;;;;;;1.10;0.70;;;;;;;;;;4941371;28;20052;-76
2021/07/14 13:38:32;;;;;;;2.30;0.70;;;;;;;;;;4924859;29;20052;-71
2021/07/14 13:41:11;;;;;;;1.17;0.68;;;;;;;;;;4940276;28;20052;-72
2021/07/14 13:43:59;;;;;;;1.30;0.73;;;;;;;;;;4926831;29;20060;-75
2021/07/14 13:46:32;;;;;;;0.90;0.63;;;;;;;;;;4939144;28;20048;-68
2021/07/14 13:49:06;;;;;;;0.60;0.60;;;;;;;;;;4923281;29;20135;-67
2021/07/14 13:51:46;;;;;;;0.80;0.80;;;;;;;;;;4924455;29;20099;-71
2021/07/14 13:54:33;;;;;;;1.65;0.60;;;;;;;;;;4924065;29;20522;-66
2021/07/14 13:57:01;;;;;;;0.82;0.70;;;;;;;;;;4926584;29;20427;-66
2021/07/14 13:59:31;;;;;;;1.65;0.98;;;;;;;;;;4922281;29;20052;-73
2021/07/14 14:02:04;;;;;;;1.15;0.68;;;;;;;;;;4939169;28;20126;-71
2021/07/14 14:04:49;;;;;;;0.70;0.70;;;;;;;;;;4927051;29;20055;-71
2021/07/14 14:07:21;;;;;;;0.70;0.70;;;;;;;;;;4930696;29;20047;-74
2021/07/14 14:09:53;;;;;;;1.25;0.60;;;;;;;;;;4925237;29;20110;-72
2021/07/14 14:12:22;;;;;;;;;;;;;;;;;;4938447;28;20127;-72
2021/07/14 14:14:49;;;;;;;0.55;0.55;;;;;;;;;;4922408;29;19946;-69
2021/07/14 14:17:18;;;;;;;1.63;0.63;;;;;;;;;;4921809;29;20499;-71
2021/07/14 14:19:45;;;;;;;0.60;0.60;;;;;;;;;;4922186;29;20444;-71
2021/07/14 14:22:14;;;;;;;1.08;0.70;;;;;;;;;;4924805;29;20443;-70
2021/07/14 14:24:41;;;;;;;0.60;0.60;;;;;;;;;;4928749;29;20051;-72
2021/07/14 14:27:09;;;;;;;0.57;0.57;;;;;;;;;;4921711;29;20048;-75
2021/07/14 14:29:38;;;;;;;1.33;0.60;;;;;;;;;;4922170;29;20056;-71
2021/07/14 14:32:06;;;;;;;1.90;0.70;;;;;;;;;;4923905;29;20143;-69
2021/07/14 14:34:33;;;;;;;0.77;0.73;;;;;;;;;;4922611;29;20050;-72
2021/07/14 14:37:00;;;;;;;1.08;0.90;;;;;;;;;;4922182;29;20103;-74
2021/07/14 14:39:30;;;;;;;2.63;1.02;;;;;;;;;;4950877;28;20083;-71
2021/07/14 14:41:57;;;;;;;3.40;1.50;;;;;;;;;;4920992;29;20498;-70
2021/07/14 14:44:24;;;;;;;1.60;1.50;;;;;;;;;;4923256;29;20495;-73
2021/07/14 14:46:51;;;;;;;1.00;0.70;;;;;;;;;;4922047;29;20044;-70
2021/07/14 14:49:20;;;;;;;1.58;1.00;;;;;;;;;;4923428;29;20510;-72
2021/07/14 14:51:47;;;;;;;2.97;1.15;;;;;;;;;;4921340;29;20507;-74
2021/07/14 14:54:14;;;;;;;1.73;1.42;;;;;;;;;;4942543;28;20671;-71
2021/07/14 14:56:41;;;;;;;1.83;1.50;;;;;;;;;;4936497;28;21088;-70
2021/07/14 14:59:09;;;;;;;1.98;1.20;;;;;;;;;;4925005;29;20055;-70
2021/07/14 15:01:36;;;;;;;1.27;1.17;;;;;;;;;;4924394;29;20082;-71
2021/07/14 15:04:04;;;;;;;2.35;1.20;;;;;;;;;;4936140;28;20058;-72
2021/07/14 15:06:31;;;;;;;1.98;1.15;;;;;;;;;;4951824;28;20478;-72
2021/07/14 15:08:57;;;;;;;1.25;1.15;;;;;;;;;;4920349;29;20059;-67
2021/07/14 15:11:24;;;;;;;1.17;1.08;;;;;;;;;;4928458;29;20052;-72
2021/07/14 15:13:52;;;;;;;0.88;0.88;;;;;;;;;;4926601;29;20185;-73